RYR5MR EDLV-LIPE
Flight info
| Callsign | RYR5MR |
|---|---|
| Flight time | 1h 17m |
| Altitude | 33000 |
| Route | DEPOK DCT OLIVI DCT SUL DCT XAMEX DCT LEVSI DCT OTKEK DCT IPDAB DCT AVCUP |
| Aircraft | B738/M-SDE2E3FGHIRWXY/LB1 |
Departure
| Time | 2026-04-21 19:09 |
|---|---|
| Airport | Weeze (Niederrhein) Airport (EDLV) |
Arrival
| Time | 2026-04-21 20:27 |
|---|---|
| Airport | Bologna Guglielmo Marconi Airport (LIPE) |
| Time | Latitude | Longitude | Altitude | Speed | Heading |
|---|---|---|---|---|---|
| 2026-04-21 18:27 | 51.59958 | 6.14875 | 113 ft | 0 kts | 92° |
| 2026-04-21 18:56 | 51.59958 | 6.14872 | 113 ft | 2 kts | 92° |
| 2026-04-21 18:56 | 51.59959 | 6.14838 | 112 ft | 4 kts | 86° |
| 2026-04-21 18:56 | 51.59951 | 6.14804 | 112 ft | 4 kts | 26° |
| 2026-04-21 18:57 | 51.59928 | 6.14796 | 111 ft | 2 kts | 2° |
| 2026-04-21 18:57 | 51.59923 | 6.14796 | 110 ft | 0 kts | 2° |
| 2026-04-21 19:02 | 51.59925 | 6.14796 | 112 ft | 1 kts | 2° |
| 2026-04-21 19:02 | 51.59952 | 6.14797 | 110 ft | 7 kts | 0° |
| 2026-04-21 19:02 | 51.60003 | 6.14798 | 112 ft | 8 kts | 3° |
| 2026-04-21 19:03 | 51.60042 | 6.14773 | 110 ft | 7 kts | 299° |
| 2026-04-21 19:03 | 51.60049 | 6.14671 | 109 ft | 12 kts | 270° |
| 2026-04-21 19:03 | 51.60048 | 6.14506 | 110 ft | 16 kts | 271° |
| 2026-04-21 19:03 | 51.60052 | 6.14310 | 112 ft | 18 kts | 271° |
| 2026-04-21 19:04 | 51.60057 | 6.14106 | 113 ft | 18 kts | 272° |
| 2026-04-21 19:04 | 51.60061 | 6.13908 | 115 ft | 17 kts | 272° |
| 2026-04-21 19:04 | 51.60065 | 6.13714 | 112 ft | 18 kts | 272° |
| 2026-04-21 19:04 | 51.60070 | 6.13509 | 114 ft | 19 kts | 272° |
| 2026-04-21 19:05 | 51.60075 | 6.13292 | 112 ft | 20 kts | 271° |
| 2026-04-21 19:05 | 51.60079 | 6.13051 | 109 ft | 22 kts | 272° |
| 2026-04-21 19:05 | 51.60085 | 6.12794 | 108 ft | 23 kts | 272° |
| 2026-04-21 19:05 | 51.60089 | 6.12601 | 110 ft | 15 kts | 272° |
| 2026-04-21 19:06 | 51.60091 | 6.12493 | 110 ft | 3 kts | 276° |
| 2026-04-21 19:06 | 51.60106 | 6.12464 | 111 ft | 4 kts | 325° |
| 2026-04-21 19:06 | 51.60136 | 6.12458 | 111 ft | 6 kts | 360° |
| 2026-04-21 19:06 | 51.60171 | 6.12459 | 111 ft | 4 kts | 2° |
| 2026-04-21 19:07 | 51.60184 | 6.12460 | 111 ft | 0 kts | 1° |
| 2026-04-21 19:07 | 51.60189 | 6.12460 | 111 ft | 4 kts | 2° |
| 2026-04-21 19:08 | 51.60252 | 6.12463 | 113 ft | 10 kts | 2° |
| 2026-04-21 19:08 | 51.60284 | 6.12488 | 110 ft | 5 kts | 68° |
| 2026-04-21 19:08 | 51.60283 | 6.12565 | 111 ft | 12 kts | 92° |
| 2026-04-21 19:08 | 51.60273 | 6.13070 | 111 ft | 79 kts | 92° |
| 2026-04-21 19:09 | 51.60246 | 6.14295 | 113 ft | 139 kts | 92° |
| 2026-04-21 19:09 | 51.60204 | 6.16049 | 387 ft | 164 kts | 92° |
| 2026-04-21 19:09 | 51.60125 | 6.17854 | 1220 ft | 160 kts | 91° |
| 2026-04-21 19:09 | 51.60008 | 6.19573 | 2142 ft | 153 kts | 93° |
| 2026-04-21 19:10 | 51.59879 | 6.21315 | 2761 ft | 158 kts | 93° |
| 2026-04-21 19:10 | 51.59750 | 6.23080 | 3442 ft | 161 kts | 94° |
| 2026-04-21 19:10 | 51.59593 | 6.24907 | 3965 ft | 173 kts | 94° |
| 2026-04-21 19:10 | 51.59472 | 6.26959 | 4255 ft | 193 kts | 93° |
| 2026-04-21 19:11 | 51.59373 | 6.29204 | 4482 ft | 211 kts | 92° |
| 2026-04-21 19:11 | 51.59276 | 6.31673 | 4696 ft | 232 kts | 93° |
| 2026-04-21 19:11 | 51.59151 | 6.34384 | 4993 ft | 252 kts | 94° |
| 2026-04-21 19:11 | 51.59008 | 6.37203 | 5690 ft | 255 kts | 94° |
| 2026-04-21 19:12 | 51.58911 | 6.39096 | 6152 ft | 257 kts | 94° |
| 2026-04-21 19:12 | 51.58709 | 6.42953 | 7119 ft | 260 kts | 94° |
| 2026-04-21 19:12 | 51.58550 | 6.45872 | 7817 ft | 262 kts | 94° |
| 2026-04-21 19:12 | 51.58385 | 6.48803 | 8527 ft | 264 kts | 94° |
| 2026-04-21 19:13 | 51.58211 | 6.51759 | 9239 ft | 266 kts | 94° |
| 2026-04-21 19:13 | 51.57796 | 6.54658 | 9917 ft | 273 kts | 116° |
| 2026-04-21 19:13 | 51.56471 | 6.56821 | 10529 ft | 286 kts | 147° |
| 2026-04-21 19:13 | 51.54478 | 6.57739 | 10737 ft | 313 kts | 170° |
| 2026-04-21 19:14 | 51.52256 | 6.58223 | 10956 ft | 331 kts | 167° |
| 2026-04-21 19:14 | 51.50702 | 6.58639 | 11263 ft | 337 kts | 166° |
| 2026-04-21 19:14 | 51.48388 | 6.59320 | 11873 ft | 341 kts | 165° |
| 2026-04-21 19:14 | 51.46078 | 6.60051 | 12555 ft | 343 kts | 165° |
| 2026-04-21 19:15 | 51.43701 | 6.60841 | 13235 ft | 347 kts | 164° |
| 2026-04-21 19:15 | 51.41360 | 6.61643 | 13893 ft | 351 kts | 164° |
| 2026-04-21 19:15 | 51.38962 | 6.62479 | 14537 ft | 354 kts | 163° |
| 2026-04-21 19:15 | 51.36548 | 6.63329 | 15217 ft | 357 kts | 163° |
| 2026-04-21 19:16 | 51.34115 | 6.64190 | 15905 ft | 359 kts | 163° |
| 2026-04-21 19:16 | 51.31665 | 6.65058 | 16528 ft | 363 kts | 163° |
| 2026-04-21 19:16 | 51.29187 | 6.65937 | 17166 ft | 366 kts | 163° |
| 2026-04-21 19:16 | 51.26685 | 6.66821 | 17791 ft | 370 kts | 163° |
| 2026-04-21 19:17 | 51.21596 | 6.68612 | 18993 ft | 378 kts | 163° |
| 2026-04-21 19:17 | 51.19016 | 6.69520 | 19572 ft | 380 kts | 163° |
| 2026-04-21 19:17 | 51.16423 | 6.70433 | 20155 ft | 383 kts | 163° |
| 2026-04-21 19:18 | 51.13812 | 6.71353 | 20718 ft | 386 kts | 163° |
| 2026-04-21 19:18 | 51.11167 | 6.72285 | 21210 ft | 390 kts | 164° |
| 2026-04-21 19:18 | 51.08503 | 6.73223 | 21699 ft | 395 kts | 164° |
| 2026-04-21 19:18 | 51.05803 | 6.74172 | 22145 ft | 399 kts | 164° |
| 2026-04-21 19:19 | 51.03108 | 6.75118 | 22642 ft | 403 kts | 164° |
| 2026-04-21 19:19 | 51.00362 | 6.76081 | 23122 ft | 406 kts | 164° |
| 2026-04-21 19:19 | 50.97582 | 6.77055 | 23379 ft | 410 kts | 163° |
| 2026-04-21 19:19 | 50.94793 | 6.78031 | 23655 ft | 410 kts | 164° |
| 2026-04-21 19:20 | 50.92008 | 6.79001 | 23917 ft | 409 kts | 164° |
| 2026-04-21 19:20 | 50.89228 | 6.79970 | 24152 ft | 410 kts | 164° |
| 2026-04-21 19:20 | 50.86424 | 6.80948 | 24237 ft | 415 kts | 164° |
| 2026-04-21 19:20 | 50.83604 | 6.81931 | 24239 ft | 415 kts | 164° |
| 2026-04-21 19:21 | 50.80788 | 6.82909 | 24237 ft | 411 kts | 164° |
| 2026-04-21 19:21 | 50.78000 | 6.83876 | 24238 ft | 411 kts | 164° |
| 2026-04-21 19:21 | 50.75206 | 6.84846 | 24246 ft | 412 kts | 164° |
| 2026-04-21 19:21 | 50.72412 | 6.85838 | 24243 ft | 412 kts | 161° |
| 2026-04-21 19:22 | 50.69721 | 6.87328 | 24233 ft | 407 kts | 150° |
| 2026-04-21 19:22 | 50.67198 | 6.89355 | 24251 ft | 406 kts | 149° |
| 2026-04-21 19:22 | 50.64696 | 6.91427 | 24243 ft | 407 kts | 149° |
| 2026-04-21 19:22 | 50.62191 | 6.93505 | 24245 ft | 408 kts | 149° |
| 2026-04-21 19:23 | 50.59673 | 6.95580 | 24240 ft | 408 kts | 149° |
| 2026-04-21 19:23 | 50.57154 | 6.97641 | 24239 ft | 409 kts | 149° |
| 2026-04-21 19:23 | 50.54621 | 6.99699 | 24253 ft | 409 kts | 149° |
| 2026-04-21 19:23 | 50.52086 | 7.01750 | 24239 ft | 409 kts | 149° |
| 2026-04-21 19:24 | 50.49560 | 7.03787 | 24237 ft | 409 kts | 149° |
| 2026-04-21 19:24 | 50.47033 | 7.05820 | 24228 ft | 408 kts | 149° |
| 2026-04-21 19:24 | 50.44507 | 7.07850 | 24231 ft | 407 kts | 149° |
| 2026-04-21 19:24 | 50.41985 | 7.09874 | 24231 ft | 407 kts | 150° |
| 2026-04-21 19:25 | 50.39480 | 7.11883 | 24328 ft | 413 kts | 150° |
| 2026-04-21 19:25 | 50.36909 | 7.13944 | 24744 ft | 415 kts | 150° |
| 2026-04-21 19:25 | 50.34340 | 7.15998 | 25237 ft | 415 kts | 150° |
| 2026-04-21 19:25 | 50.31770 | 7.18051 | 25641 ft | 417 kts | 150° |
| 2026-04-21 19:26 | 50.29168 | 7.20127 | 25996 ft | 420 kts | 150° |
| 2026-04-21 19:26 | 50.26548 | 7.22216 | 26366 ft | 423 kts | 150° |
| 2026-04-21 19:26 | 50.23914 | 7.24312 | 26718 ft | 426 kts | 150° |
| 2026-04-21 19:26 | 50.21265 | 7.26418 | 27082 ft | 429 kts | 150° |
| 2026-04-21 19:27 | 50.18597 | 7.28536 | 27438 ft | 432 kts | 151° |
| 2026-04-21 19:27 | 50.15891 | 7.30682 | 27540 ft | 441 kts | 151° |
| 2026-04-21 19:27 | 50.13142 | 7.32859 | 27833 ft | 444 kts | 152° |
| 2026-04-21 19:27 | 50.10390 | 7.35036 | 28296 ft | 444 kts | 151° |
| 2026-04-21 19:28 | 50.07624 | 7.37219 | 28704 ft | 445 kts | 151° |
| 2026-04-21 19:28 | 50.04852 | 7.39405 | 28990 ft | 448 kts | 151° |
| 2026-04-21 19:28 | 50.02060 | 7.41605 | 29305 ft | 451 kts | 152° |
| 2026-04-21 19:28 | 49.99264 | 7.43804 | 29740 ft | 450 kts | 152° |
| 2026-04-21 19:29 | 49.96469 | 7.46000 | 30224 ft | 449 kts | 152° |
| 2026-04-21 19:29 | 49.93686 | 7.48183 | 30541 ft | 450 kts | 152° |
| 2026-04-21 19:29 | 49.90871 | 7.50390 | 30644 ft | 456 kts | 152° |
| 2026-04-21 19:29 | 49.88064 | 7.52587 | 30899 ft | 457 kts | 152° |
| 2026-04-21 19:30 | 49.85227 | 7.54805 | 31299 ft | 455 kts | 152° |
| 2026-04-21 19:30 | 49.82402 | 7.57011 | 31672 ft | 454 kts | 153° |
| 2026-04-21 19:30 | 49.79577 | 7.59214 | 31946 ft | 455 kts | 153° |
| 2026-04-21 19:30 | 49.76743 | 7.61419 | 32195 ft | 457 kts | 153° |
| 2026-04-21 19:31 | 49.73895 | 7.63612 | 32500 ft | 457 kts | 153° |
| 2026-04-21 19:31 | 49.71053 | 7.65786 | 32815 ft | 456 kts | 154° |
| 2026-04-21 19:31 | 49.68198 | 7.67964 | 33001 ft | 460 kts | 154° |
| 2026-04-21 19:31 | 49.65334 | 7.70147 | 33171 ft | 456 kts | 154° |
| 2026-04-21 19:32 | 49.59618 | 7.74500 | 33184 ft | 460 kts | 154° |
| 2026-04-21 19:32 | 49.53857 | 7.78880 | 33183 ft | 461 kts | 154° |
| 2026-04-21 19:33 | 49.48138 | 7.83219 | 33172 ft | 462 kts | 154° |
| 2026-04-21 19:33 | 49.42330 | 7.87616 | 33177 ft | 462 kts | 154° |
| 2026-04-21 19:34 | 49.36590 | 7.91948 | 33188 ft | 463 kts | 154° |
| 2026-04-21 19:34 | 49.30798 | 7.96308 | 33188 ft | 463 kts | 154° |
| 2026-04-21 19:35 | 49.22108 | 8.02828 | 33197 ft | 463 kts | 155° |
| 2026-04-21 19:36 | 49.16312 | 8.07162 | 33198 ft | 464 kts | 155° |
| 2026-04-21 19:36 | 49.10516 | 8.11485 | 33191 ft | 463 kts | 155° |
| 2026-04-21 19:37 | 49.04719 | 8.15798 | 33188 ft | 463 kts | 155° |
| 2026-04-21 19:37 | 48.98923 | 8.20099 | 33173 ft | 463 kts | 155° |
| 2026-04-21 19:38 | 48.93151 | 8.24370 | 33191 ft | 464 kts | 155° |
| 2026-04-21 19:38 | 48.88289 | 8.27959 | 33190 ft | 464 kts | 155° |
| 2026-04-21 19:39 | 48.81519 | 8.32945 | 33191 ft | 466 kts | 155° |
| 2026-04-21 19:39 | 48.75672 | 8.37238 | 33166 ft | 467 kts | 156° |
| 2026-04-21 19:40 | 48.69811 | 8.41531 | 33190 ft | 469 kts | 156° |
| 2026-04-21 19:40 | 48.63927 | 8.45830 | 33185 ft | 470 kts | 156° |
| 2026-04-21 19:41 | 48.58047 | 8.50114 | 33184 ft | 472 kts | 156° |
| 2026-04-21 19:41 | 48.52125 | 8.54427 | 33190 ft | 473 kts | 156° |
| 2026-04-21 19:42 | 48.46194 | 8.58724 | 33180 ft | 474 kts | 156° |
| 2026-04-21 19:42 | 48.40249 | 8.63019 | 33193 ft | 474 kts | 156° |
| 2026-04-21 19:43 | 48.34287 | 8.67298 | 33181 ft | 473 kts | 156° |
| 2026-04-21 19:43 | 48.28338 | 8.71513 | 33167 ft | 472 kts | 157° |
| 2026-04-21 19:44 | 48.22406 | 8.75702 | 33177 ft | 470 kts | 157° |
| 2026-04-21 19:44 | 48.16482 | 8.79882 | 33180 ft | 470 kts | 157° |
| 2026-04-21 19:45 | 48.10570 | 8.84047 | 33172 ft | 469 kts | 157° |
| 2026-04-21 19:45 | 48.04695 | 8.88173 | 33162 ft | 470 kts | 158° |
| 2026-04-21 19:46 | 47.98761 | 8.92329 | 33170 ft | 473 kts | 158° |
| 2026-04-21 19:46 | 47.92783 | 8.96506 | 33164 ft | 476 kts | 158° |
| 2026-04-21 19:47 | 47.86773 | 9.00696 | 33134 ft | 478 kts | 158° |
| 2026-04-21 19:47 | 47.80733 | 9.04898 | 33151 ft | 479 kts | 158° |
| 2026-04-21 19:48 | 47.74688 | 9.09091 | 33149 ft | 480 kts | 158° |
| 2026-04-21 19:48 | 47.68662 | 9.13259 | 33148 ft | 481 kts | 158° |
| 2026-04-21 19:49 | 47.62592 | 9.17449 | 33117 ft | 481 kts | 159° |
| 2026-04-21 19:49 | 47.56527 | 9.21623 | 33135 ft | 480 kts | 159° |
| 2026-04-21 19:50 | 47.51481 | 9.25088 | 33153 ft | 481 kts | 159° |
| 2026-04-21 19:50 | 47.44382 | 9.29950 | 33150 ft | 481 kts | 159° |
| 2026-04-21 19:51 | 47.38312 | 9.34096 | 33130 ft | 480 kts | 159° |
| 2026-04-21 19:51 | 47.32244 | 9.38231 | 33133 ft | 480 kts | 159° |
| 2026-04-21 19:52 | 47.26169 | 9.42359 | 33140 ft | 481 kts | 159° |
| 2026-04-21 19:52 | 47.20126 | 9.46456 | 33086 ft | 480 kts | 159° |
| 2026-04-21 19:53 | 47.14055 | 9.50563 | 33130 ft | 481 kts | 160° |
| 2026-04-21 19:53 | 47.07948 | 9.54656 | 33146 ft | 483 kts | 161° |
| 2026-04-21 19:54 | 47.01764 | 9.58583 | 33123 ft | 484 kts | 161° |
| 2026-04-21 19:54 | 46.95564 | 9.62461 | 33095 ft | 484 kts | 162° |
| 2026-04-21 19:55 | 46.89378 | 9.66338 | 33095 ft | 485 kts | 162° |
| 2026-04-21 19:55 | 46.83186 | 9.70231 | 33110 ft | 484 kts | 162° |
| 2026-04-21 19:56 | 46.76978 | 9.74127 | 33099 ft | 486 kts | 162° |
| 2026-04-21 19:56 | 46.70801 | 9.77997 | 33090 ft | 485 kts | 162° |
| 2026-04-21 19:57 | 46.64592 | 9.81926 | 33044 ft | 490 kts | 159° |
| 2026-04-21 19:57 | 46.58746 | 9.87154 | 33054 ft | 497 kts | 146° |
| 2026-04-21 19:58 | 46.53799 | 9.94187 | 33013 ft | 502 kts | 122° |
| 2026-04-21 19:58 | 46.50619 | 10.03178 | 33049 ft | 499 kts | 114° |
| 2026-04-21 19:58 | 46.49143 | 10.07724 | 32843 ft | 494 kts | 114° |
| 2026-04-21 19:59 | 46.48177 | 10.10720 | 32323 ft | 495 kts | 114° |
| 2026-04-21 19:59 | 46.46712 | 10.15288 | 31455 ft | 505 kts | 114° |
| 2026-04-21 19:59 | 46.44750 | 10.21440 | 30654 ft | 507 kts | 114° |
| 2026-04-21 19:59 | 46.43283 | 10.26059 | 30191 ft | 504 kts | 114° |
| 2026-04-21 20:00 | 46.42288 | 10.29196 | 29816 ft | 503 kts | 114° |
| 2026-04-21 20:00 | 46.40851 | 10.33735 | 29204 ft | 501 kts | 114° |
| 2026-04-21 20:00 | 46.39404 | 10.38313 | 28708 ft | 498 kts | 114° |
| 2026-04-21 20:00 | 46.37965 | 10.42865 | 28150 ft | 496 kts | 114° |
| 2026-04-21 20:01 | 46.36534 | 10.47400 | 27751 ft | 490 kts | 114° |
| 2026-04-21 20:01 | 46.35131 | 10.51858 | 27523 ft | 483 kts | 114° |
| 2026-04-21 20:01 | 46.33745 | 10.56264 | 27233 ft | 477 kts | 114° |
| 2026-04-21 20:01 | 46.32378 | 10.60624 | 27070 ft | 476 kts | 114° |
| 2026-04-21 20:02 | 46.31012 | 10.64992 | 27042 ft | 477 kts | 114° |
| 2026-04-21 20:02 | 46.29651 | 10.69344 | 27017 ft | 474 kts | 114° |
| 2026-04-21 20:02 | 46.28287 | 10.73708 | 27058 ft | 478 kts | 114° |
| 2026-04-21 20:02 | 46.26913 | 10.78099 | 27044 ft | 478 kts | 114° |
| 2026-04-21 20:03 | 46.25554 | 10.82434 | 27006 ft | 468 kts | 115° |
| 2026-04-21 20:03 | 46.23849 | 10.86263 | 27048 ft | 450 kts | 137° |
| 2026-04-21 20:03 | 46.21429 | 10.88870 | 27032 ft | 423 kts | 162° |
| 2026-04-21 20:03 | 46.18713 | 10.89911 | 27025 ft | 388 kts | 187° |
| 2026-04-21 20:04 | 46.16059 | 10.90033 | 27035 ft | 386 kts | 182° |
| 2026-04-21 20:04 | 46.13372 | 10.90716 | 27048 ft | 393 kts | 176° |
| 2026-04-21 20:04 | 46.10733 | 10.91581 | 27016 ft | 384 kts | 175° |
| 2026-04-21 20:04 | 46.08130 | 10.92469 | 26535 ft | 387 kts | 175° |
| 2026-04-21 20:05 | 46.05482 | 10.93359 | 26043 ft | 391 kts | 174° |
| 2026-04-21 20:05 | 46.02832 | 10.94237 | 25517 ft | 392 kts | 176° |
| 2026-04-21 20:05 | 46.00154 | 10.95105 | 25021 ft | 394 kts | 176° |
| 2026-04-21 20:05 | 45.97478 | 10.95961 | 24629 ft | 394 kts | 176° |
| 2026-04-21 20:06 | 45.94799 | 10.96812 | 24277 ft | 393 kts | 175° |
| 2026-04-21 20:06 | 45.92137 | 10.97653 | 23956 ft | 391 kts | 175° |
| 2026-04-21 20:06 | 45.89480 | 10.98489 | 23587 ft | 389 kts | 175° |
| 2026-04-21 20:06 | 45.86842 | 10.99318 | 23183 ft | 386 kts | 175° |
| 2026-04-21 20:07 | 45.84235 | 11.00136 | 22868 ft | 381 kts | 175° |
| 2026-04-21 20:07 | 45.81690 | 11.00934 | 22480 ft | 378 kts | 176° |
| 2026-04-21 20:07 | 45.79126 | 11.01735 | 22167 ft | 375 kts | 176° |
| 2026-04-21 20:07 | 45.76585 | 11.02527 | 21841 ft | 372 kts | 176° |
| 2026-04-21 20:08 | 45.74059 | 11.03313 | 21496 ft | 371 kts | 176° |
| 2026-04-21 20:08 | 45.71547 | 11.04095 | 21205 ft | 369 kts | 175° |
| 2026-04-21 20:08 | 45.69048 | 11.04872 | 20864 ft | 367 kts | 175° |
| 2026-04-21 20:08 | 45.66558 | 11.05645 | 20524 ft | 364 kts | 175° |
| 2026-04-21 20:09 | 45.64087 | 11.06412 | 20211 ft | 362 kts | 174° |
| 2026-04-21 20:09 | 45.61633 | 11.07173 | 19879 ft | 360 kts | 175° |
| 2026-04-21 20:09 | 45.59183 | 11.07932 | 19556 ft | 359 kts | 175° |
| 2026-04-21 20:09 | 45.56752 | 11.08685 | 19230 ft | 357 kts | 174° |
| 2026-04-21 20:10 | 45.54363 | 11.09425 | 18917 ft | 354 kts | 174° |
| 2026-04-21 20:10 | 45.51959 | 11.10168 | 18606 ft | 352 kts | 174° |
| 2026-04-21 20:10 | 45.49575 | 11.10905 | 18290 ft | 349 kts | 174° |
| 2026-04-21 20:10 | 45.47208 | 11.11635 | 17931 ft | 347 kts | 174° |
| 2026-04-21 20:11 | 45.44858 | 11.12360 | 17585 ft | 344 kts | 173° |
| 2026-04-21 20:11 | 45.42522 | 11.13081 | 17256 ft | 340 kts | 173° |
| 2026-04-21 20:11 | 45.40223 | 11.13789 | 16953 ft | 337 kts | 173° |
| 2026-04-21 20:11 | 45.37931 | 11.14493 | 16635 ft | 335 kts | 173° |
| 2026-04-21 20:12 | 45.35662 | 11.15189 | 16323 ft | 333 kts | 173° |
| 2026-04-21 20:12 | 45.33407 | 11.15881 | 15999 ft | 330 kts | 172° |
| 2026-04-21 20:12 | 45.31171 | 11.16567 | 15697 ft | 328 kts | 172° |
| 2026-04-21 20:12 | 45.28947 | 11.17249 | 15438 ft | 326 kts | 172° |
| 2026-04-21 20:13 | 45.26734 | 11.17926 | 15198 ft | 325 kts | 172° |
| 2026-04-21 20:13 | 45.24518 | 11.18604 | 15066 ft | 326 kts | 171° |
| 2026-04-21 20:13 | 45.22292 | 11.19283 | 15021 ft | 327 kts | 171° |
| 2026-04-21 20:13 | 45.20072 | 11.19962 | 15016 ft | 327 kts | 172° |
| 2026-04-21 20:14 | 45.17848 | 11.20641 | 15021 ft | 327 kts | 172° |
| 2026-04-21 20:14 | 45.15613 | 11.21323 | 15025 ft | 328 kts | 172° |
| 2026-04-21 20:14 | 45.13384 | 11.22003 | 15013 ft | 326 kts | 172° |
| 2026-04-21 20:14 | 45.11178 | 11.22676 | 14842 ft | 323 kts | 172° |
| 2026-04-21 20:15 | 45.09018 | 11.23334 | 14546 ft | 321 kts | 171° |
| 2026-04-21 20:15 | 45.06830 | 11.24000 | 14192 ft | 321 kts | 171° |
| 2026-04-21 20:15 | 45.04657 | 11.24660 | 13853 ft | 317 kts | 171° |
| 2026-04-21 20:15 | 45.02489 | 11.25318 | 13277 ft | 323 kts | 170° |
| 2026-04-21 20:16 | 45.00260 | 11.25993 | 12469 ft | 331 kts | 170° |
| 2026-04-21 20:16 | 44.98006 | 11.26677 | 11892 ft | 331 kts | 169° |
| 2026-04-21 20:16 | 44.95776 | 11.27355 | 11574 ft | 320 kts | 169° |
| 2026-04-21 20:16 | 44.93657 | 11.27998 | 11441 ft | 304 kts | 169° |
| 2026-04-21 20:17 | 44.91610 | 11.28613 | 11084 ft | 298 kts | 171° |
| 2026-04-21 20:17 | 44.89563 | 11.28601 | 10630 ft | 294 kts | 195° |
| 2026-04-21 20:17 | 44.87616 | 11.27796 | 10235 ft | 291 kts | 198° |
| 2026-04-21 20:17 | 44.85678 | 11.26958 | 9814 ft | 292 kts | 197° |
| 2026-04-21 20:18 | 44.84387 | 11.26405 | 9609 ft | 291 kts | 197° |
| 2026-04-21 20:18 | 44.81810 | 11.25318 | 9208 ft | 288 kts | 197° |
| 2026-04-21 20:18 | 44.79887 | 11.24516 | 8894 ft | 287 kts | 196° |
| 2026-04-21 20:18 | 44.77975 | 11.23721 | 8579 ft | 286 kts | 196° |
| 2026-04-21 20:19 | 44.76112 | 11.22946 | 8442 ft | 278 kts | 196° |
| 2026-04-21 20:19 | 44.74292 | 11.22189 | 8368 ft | 268 kts | 195° |
| 2026-04-21 20:19 | 44.72524 | 11.21453 | 8244 ft | 260 kts | 195° |
| 2026-04-21 20:19 | 44.70890 | 11.20436 | 7879 ft | 258 kts | 218° |
| 2026-04-21 20:20 | 44.69773 | 11.18492 | 7413 ft | 257 kts | 243° |
| 2026-04-21 20:20 | 44.69484 | 11.16107 | 7218 ft | 242 kts | 280° |
| 2026-04-21 20:20 | 44.70039 | 11.13978 | 7083 ft | 224 kts | 295° |
| 2026-04-21 20:20 | 44.70321 | 11.11883 | 6665 ft | 220 kts | 256° |
| 2026-04-21 20:21 | 44.69585 | 11.10074 | 6217 ft | 214 kts | 220° |
| 2026-04-21 20:21 | 44.68384 | 11.08899 | 5788 ft | 207 kts | 199° |
| 2026-04-21 20:21 | 44.67033 | 11.08284 | 5395 ft | 203 kts | 193° |
| 2026-04-21 20:21 | 44.65684 | 11.07714 | 4980 ft | 202 kts | 192° |
| 2026-04-21 20:22 | 44.64372 | 11.07154 | 4629 ft | 197 kts | 193° |
| 2026-04-21 20:22 | 44.61919 | 11.06839 | 3990 ft | 170 kts | 149° |
| 2026-04-21 20:22 | 44.61094 | 11.07986 | 3533 ft | 168 kts | 116° |
| 2026-04-21 20:23 | 44.60569 | 11.09417 | 3116 ft | 163 kts | 117° |
| 2026-04-21 20:23 | 44.60058 | 11.10782 | 2818 ft | 152 kts | 117° |
| 2026-04-21 20:23 | 44.59587 | 11.12071 | 2607 ft | 146 kts | 116° |
| 2026-04-21 20:23 | 44.59128 | 11.13341 | 2425 ft | 147 kts | 116° |
| 2026-04-21 20:24 | 44.58663 | 11.14631 | 2221 ft | 149 kts | 116° |
| 2026-04-21 20:24 | 44.58195 | 11.15918 | 2058 ft | 148 kts | 116° |
| 2026-04-21 20:24 | 44.57724 | 11.17186 | 1885 ft | 142 kts | 116° |
| 2026-04-21 20:24 | 44.57268 | 11.18450 | 1583 ft | 148 kts | 115° |
| 2026-04-21 20:25 | 44.56794 | 11.19765 | 1376 ft | 153 kts | 115° |
| 2026-04-21 20:25 | 44.56331 | 11.21112 | 1268 ft | 153 kts | 115° |
| 2026-04-21 20:25 | 44.55887 | 11.22394 | 1046 ft | 143 kts | 116° |
| 2026-04-21 20:25 | 44.55429 | 11.23633 | 828 ft | 142 kts | 116° |
| 2026-04-21 20:26 | 44.54985 | 11.24874 | 639 ft | 143 kts | 114° |
| 2026-04-21 20:26 | 44.54531 | 11.26134 | 448 ft | 147 kts | 116° |
| 2026-04-21 20:26 | 44.54066 | 11.27421 | 218 ft | 148 kts | 115° |
| 2026-04-21 20:26 | 44.53626 | 11.28657 | 127 ft | 134 kts | 117° |
| 2026-04-21 20:27 | 44.53318 | 11.29501 | 124 ft | 77 kts | 117° |
| 2026-04-21 20:27 | 44.53124 | 11.30033 | 121 ft | 45 kts | 116° |
| 2026-04-21 20:27 | 44.53067 | 11.30198 | 122 ft | 9 kts | 116° |
| 2026-04-21 20:27 | 44.53015 | 11.30244 | 123 ft | 9 kts | 185° |
| 2026-04-21 20:28 | 44.52981 | 11.30176 | 121 ft | 9 kts | 268° |
| 2026-04-21 20:28 | 44.52979 | 11.30087 | 125 ft | 9 kts | 266° |
| 2026-04-21 20:28 | 44.52974 | 11.30001 | 122 ft | 9 kts | 266° |
| 2026-04-21 20:28 | 44.52975 | 11.29917 | 125 ft | 9 kts | 286° |
| 2026-04-21 20:29 | 44.52996 | 11.29845 | 124 ft | 7 kts | 291° |
| 2026-04-21 20:29 | 44.53006 | 11.29808 | 121 ft | 3 kts | 291° |
| 2026-04-21 20:29 | 44.53014 | 11.29784 | 124 ft | 3 kts | 298° |
| 2026-04-21 20:29 | 44.53029 | 11.29744 | 124 ft | 6 kts | 298° |
| 2026-04-21 20:30 | 44.53053 | 11.29682 | 124 ft | 7 kts | 297° |
| 2026-04-21 20:30 | 44.53075 | 11.29622 | 125 ft | 7 kts | 297° |
| 2026-04-21 20:30 | 44.53098 | 11.29558 | 123 ft | 9 kts | 297° |
| 2026-04-21 20:30 | 44.53131 | 11.29470 | 125 ft | 8 kts | 297° |
| 2026-04-21 20:31 | 44.53154 | 11.29405 | 122 ft | 6 kts | 286° |
| 2026-04-21 20:31 | 44.53132 | 11.29362 | 126 ft | 6 kts | 208° |
| 2026-04-21 20:31 | 44.53096 | 11.29337 | 107 ft | 6 kts | 206° |
| 2026-04-21 20:31 | 44.53075 | 11.29323 | 122 ft | 3 kts | 206° |
| 2026-04-21 20:32 | 44.53067 | 11.29318 | 123 ft | 0 kts | 206° |
| 2026-04-21 20:35 | 44.53067 | 11.29317 | 123 ft | 0 kts | 209° |